Ammansville, Texas
Current Conditions -  °F | °C
As of 4:55 AM on Sunday 23 Nov 2014 (Local Time) from K3T5 Reporting Station
Overcast Overcast  
Wind Chill: 61°   Ceiling: 1200
Heat Index: 61°   Visibility: 10mi
Dew Point: 60°   Wind: 5mph
Humidity: 96%   Direction: 210°SSW
Pressure: 29.66"   Gusts: NA
Location:  29.8569°N, 96.9311°W
Report Text: K3T5 231055Z AUTO 21004KT 10SM SCT006 OVC012 16/16 A2966 RMK AO2 T01610155
Loading
Personal Weather Stations






























Interactive Weather Map New forecast layout! Learn more

10-Day Weather Forecast

Advertisements
Track Severe Weather on mobile